sensor_id;sensor_type;location;lat;lon;timestamp;P1;durP1;ratioP1;P2;durP2;ratioP2
14191;SDS011;7177;48.572;7.838;2024-01-10T00:00:36;26.00;;;17.00;;
14191;SDS011;7177;48.572;7.838;2024-01-10T00:03:02;23.48;;;14.85;;
14191;SDS011;7177;48.572;7.838;2024-01-10T00:05:28;25.70;;;15.48;;
14191;SDS011;7177;48.572;7.838;2024-01-10T00:07:53;27.97;;;17.27;;
14191;SDS011;7177;48.572;7.838;2024-01-10T00:10:19;25.43;;;15.93;;
14191;SDS011;7177;48.572;7.838;2024-01-10T00:12:46;25.65;;;15.85;;
14191;SDS011;7177;48.572;7.838;2024-01-10T00:15:12;23.20;;;15.30;;
14191;SDS011;7177;48.572;7.838;2024-01-10T00:17:39;26.25;;;15.73;;
14191;SDS011;7177;48.572;7.838;2024-01-10T00:20:06;22.58;;;14.73;;
14191;SDS011;7177;48.572;7.838;2024-01-10T00:22:32;25.40;;;14.75;;
14191;SDS011;7177;48.572;7.838;2024-01-10T00:24:58;23.00;;;14.13;;
14191;SDS011;7177;48.572;7.838;2024-01-10T00:27:23;26.87;;;14.73;;
14191;SDS011;7177;48.572;7.838;2024-01-10T00:29:49;24.50;;;14.70;;
14191;SDS011;7177;48.572;7.838;2024-01-10T00:32:16;22.90;;;13.50;;
14191;SDS011;7177;48.572;7.838;2024-01-10T00:34:42;24.47;;;14.00;;
14191;SDS011;7177;48.572;7.838;2024-01-10T00:37:07;23.00;;;13.80;;
14191;SDS011;7177;48.572;7.838;2024-01-10T00:39:33;26.20;;;14.07;;
14191;SDS011;7177;48.572;7.838;2024-01-10T00:41:58;19.90;;;13.07;;
14191;SDS011;7177;48.572;7.838;2024-01-10T00:44:24;25.33;;;14.70;;
14191;SDS011;7177;48.572;7.838;2024-01-10T00:46:50;19.30;;;12.67;;
14191;SDS011;7177;48.572;7.838;2024-01-10T00:49:15;18.83;;;12.00;;
14191;SDS011;7177;48.572;7.838;2024-01-10T00:51:41;22.23;;;13.93;;
14191;SDS011;7177;48.572;7.838;2024-01-10T00:54:06;21.53;;;12.57;;
14191;SDS011;7177;48.572;7.838;2024-01-10T00:56:32;21.80;;;13.20;;
14191;SDS011;7177;48.572;7.838;2024-01-10T00:58:57;21.57;;;12.90;;
14191;SDS011;7177;48.572;7.838;2024-01-10T01:01:23;19.97;;;12.50;;
14191;SDS011;7177;48.572;7.838;2024-01-10T01:03:49;22.48;;;13.77;;
14191;SDS011;7177;48.572;7.838;2024-01-10T01:06:15;21.37;;;12.70;;
14191;SDS011;7177;48.572;7.838;2024-01-10T01:08:41;20.03;;;12.70;;
14191;SDS011;7177;48.572;7.838;2024-01-10T01:11:06;21.37;;;13.53;;
14191;SDS011;7177;48.572;7.838;2024-01-10T01:13:32;19.33;;;12.70;;
14191;SDS011;7177;48.572;7.838;2024-01-10T01:15:57;19.50;;;12.43;;
14191;SDS011;7177;48.572;7.838;2024-01-10T01:18:23;25.33;;;13.30;;
14191;SDS011;7177;48.572;7.838;2024-01-10T01:20:48;18.27;;;11.83;;
14191;SDS011;7177;48.572;7.838;2024-01-10T01:23:15;20.23;;;12.95;;
14191;SDS011;7177;48.572;7.838;2024-01-10T01:25:40;21.23;;;13.47;;
14191;SDS011;7177;48.572;7.838;2024-01-10T01:28:06;21.57;;;12.80;;
14191;SDS011;7177;48.572;7.838;2024-01-10T01:30:32;21.63;;;12.98;;
14191;SDS011;7177;48.572;7.838;2024-01-10T01:32:58;20.77;;;13.67;;
14191;SDS011;7177;48.572;7.838;2024-01-10T01:35:23;25.57;;;14.53;;
14191;SDS011;7177;48.572;7.838;2024-01-10T01:37:49;20.00;;;13.17;;
14191;SDS011;7177;48.572;7.838;2024-01-10T01:40:15;20.57;;;13.83;;
14191;SDS011;7177;48.572;7.838;2024-01-10T01:42:40;21.43;;;13.80;;
14191;SDS011;7177;48.572;7.838;2024-01-10T01:45:06;21.57;;;14.47;;
14191;SDS011;7177;48.572;7.838;2024-01-10T01:47:32;22.13;;;14.20;;
14191;SDS011;7177;48.572;7.838;2024-01-10T01:49:57;20.70;;;13.83;;
14191;SDS011;7177;48.572;7.838;2024-01-10T01:52:23;22.13;;;14.23;;
14191;SDS011;7177;48.572;7.838;2024-01-10T01:54:49;23.90;;;14.25;;
14191;SDS011;7177;48.572;7.838;2024-01-10T01:57:15;24.40;;;14.80;;
14191;SDS011;7177;48.572;7.838;2024-01-10T01:59:41;22.20;;;13.27;;
14191;SDS011;7177;48.572;7.838;2024-01-10T02:02:07;22.13;;;13.32;;
14191;SDS011;7177;48.572;7.838;2024-01-10T02:04:33;21.85;;;14.43;;
14191;SDS011;7177;48.572;7.838;2024-01-10T02:06:59;23.05;;;14.80;;
14191;SDS011;7177;48.572;7.838;2024-01-10T02:09:25;21.90;;;13.45;;
14191;SDS011;7177;48.572;7.838;2024-01-10T02:11:51;21.10;;;13.82;;
14191;SDS011;7177;48.572;7.838;2024-01-10T02:14:17;19.57;;;13.10;;
14191;SDS011;7177;48.572;7.838;2024-01-10T02:16:43;19.37;;;12.20;;
14191;SDS011;7177;48.572;7.838;2024-01-10T02:19:22;19.67;;;12.67;;
14191;SDS011;7177;48.572;7.838;2024-01-10T02:21:48;19.92;;;12.90;;
14191;SDS011;7177;48.572;7.838;2024-01-10T02:24:14;18.67;;;11.77;;
14191;SDS011;7177;48.572;7.838;2024-01-10T02:26:40;18.73;;;12.00;;
14191;SDS011;7177;48.572;7.838;2024-01-10T02:29:05;19.50;;;13.20;;
14191;SDS011;7177;48.572;7.838;2024-01-10T02:31:31;19.10;;;13.00;;
14191;SDS011;7177;48.572;7.838;2024-01-10T02:33:56;20.33;;;13.27;;
14191;SDS011;7177;48.572;7.838;2024-01-10T02:36:22;20.27;;;12.97;;
14191;SDS011;7177;48.572;7.838;2024-01-10T02:38:47;18.70;;;11.97;;
14191;SDS011;7177;48.572;7.838;2024-01-10T02:41:15;18.52;;;12.07;;
14191;SDS011;7177;48.572;7.838;2024-01-10T02:43:40;25.23;;;13.87;;
14191;SDS011;7177;48.572;7.838;2024-01-10T02:46:06;18.97;;;12.43;;
14191;SDS011;7177;48.572;7.838;2024-01-10T02:48:31;19.00;;;12.30;;
14191;SDS011;7177;48.572;7.838;2024-01-10T02:50:57;23.90;;;13.90;;
14191;SDS011;7177;48.572;7.838;2024-01-10T02:53:22;19.23;;;12.27;;
14191;SDS011;7177;48.572;7.838;2024-01-10T02:55:48;21.27;;;13.67;;
14191;SDS011;7177;48.572;7.838;2024-01-10T02:58:14;18.45;;;12.23;;
14191;SDS011;7177;48.572;7.838;2024-01-10T03:00:40;20.93;;;12.93;;
14191;SDS011;7177;48.572;7.838;2024-01-10T03:03:05;20.73;;;12.80;;
14191;SDS011;7177;48.572;7.838;2024-01-10T03:05:31;22.87;;;12.80;;
14191;SDS011;7177;48.572;7.838;2024-01-10T03:07:56;21.57;;;12.63;;
14191;SDS011;7177;48.572;7.838;2024-01-10T03:10:22;18.67;;;11.70;;
14191;SDS011;7177;48.572;7.838;2024-01-10T03:12:47;23.53;;;12.93;;
14191;SDS011;7177;48.572;7.838;2024-01-10T03:15:13;21.83;;;13.03;;
14191;SDS011;7177;48.572;7.838;2024-01-10T03:17:39;17.83;;;11.80;;
14191;SDS011;7177;48.572;7.838;2024-01-10T03:20:04;18.07;;;11.10;;
14191;SDS011;7177;48.572;7.838;2024-01-10T03:22:31;20.17;;;11.43;;
14191;SDS011;7177;48.572;7.838;2024-01-10T03:24:57;18.45;;;11.68;;
14191;SDS011;7177;48.572;7.838;2024-01-10T03:27:22;18.00;;;11.93;;
14191;SDS011;7177;48.572;7.838;2024-01-10T03:29:48;19.90;;;12.77;;
14191;SDS011;7177;48.572;7.838;2024-01-10T03:32:13;19.23;;;11.50;;
14191;SDS011;7177;48.572;7.838;2024-01-10T03:34:40;19.80;;;12.07;;
14191;SDS011;7177;48.572;7.838;2024-01-10T03:37:06;18.60;;;11.70;;
14191;SDS011;7177;48.572;7.838;2024-01-10T03:39:32;19.27;;;12.27;;
14191;SDS011;7177;48.572;7.838;2024-01-10T03:41:57;19.57;;;12.07;;
14191;SDS011;7177;48.572;7.838;2024-01-10T03:44:23;19.93;;;12.87;;
14191;SDS011;7177;48.572;7.838;2024-01-10T03:46:49;23.77;;;13.47;;
14191;SDS011;7177;48.572;7.838;2024-01-10T03:49:14;19.87;;;12.53;;
14191;SDS011;7177;48.572;7.838;2024-01-10T03:51:40;20.37;;;12.70;;
14191;SDS011;7177;48.572;7.838;2024-01-10T03:54:06;18.85;;;12.60;;
14191;SDS011;7177;48.572;7.838;2024-01-10T03:56:32;16.40;;;11.43;;
14191;SDS011;7177;48.572;7.838;2024-01-10T03:58:57;18.37;;;11.97;;
14191;SDS011;7177;48.572;7.838;2024-01-10T04:01:24;19.48;;;11.50;;
14191;SDS011;7177;48.572;7.838;2024-01-10T04:03:49;19.70;;;12.83;;
14191;SDS011;7177;48.572;7.838;2024-01-10T04:06:15;20.87;;;12.60;;
14191;SDS011;7177;48.572;7.838;2024-01-10T04:08:40;19.57;;;12.27;;
14191;SDS011;7177;48.572;7.838;2024-01-10T04:11:06;24.10;;;12.80;;
14191;SDS011;7177;48.572;7.838;2024-01-10T04:13:31;20.57;;;12.53;;
14191;SDS011;7177;48.572;7.838;2024-01-10T04:15:57;18.97;;;12.13;;
14191;SDS011;7177;48.572;7.838;2024-01-10T04:18:22;20.47;;;11.97;;
14191;SDS011;7177;48.572;7.838;2024-01-10T04:23:29;21.65;;;14.20;;
14191;SDS011;7177;48.572;7.838;2024-01-10T04:25:55;21.33;;;13.40;;
14191;SDS011;7177;48.572;7.838;2024-01-10T04:28:21;20.30;;;12.90;;
14191;SDS011;7177;48.572;7.838;2024-01-10T04:30:47;23.00;;;13.63;;
14191;SDS011;7177;48.572;7.838;2024-01-10T04:33:12;21.67;;;13.73;;
14191;SDS011;7177;48.572;7.838;2024-01-10T04:35:38;20.93;;;12.93;;
14191;SDS011;7177;48.572;7.838;2024-01-10T04:38:03;20.93;;;13.77;;
14191;SDS011;7177;48.572;7.838;2024-01-10T04:40:29;19.40;;;12.80;;
14191;SDS011;7177;48.572;7.838;2024-01-10T04:42:54;20.53;;;12.90;;
14191;SDS011;7177;48.572;7.838;2024-01-10T04:45:20;21.93;;;13.03;;
14191;SDS011;7177;48.572;7.838;2024-01-10T04:47:45;23.27;;;13.33;;
14191;SDS011;7177;48.572;7.838;2024-01-10T04:50:11;19.10;;;12.80;;
14191;SDS011;7177;48.572;7.838;2024-01-10T04:52:36;22.33;;;13.73;;
14191;SDS011;7177;48.572;7.838;2024-01-10T04:55:02;20.60;;;12.60;;
14191;SDS011;7177;48.572;7.838;2024-01-10T04:57:30;23.25;;;13.40;;
14191;SDS011;7177;48.572;7.838;2024-01-10T04:59:56;19.48;;;12.95;;
14191;SDS011;7177;48.572;7.838;2024-01-10T05:02:22;19.60;;;12.57;;
14191;SDS011;7177;48.572;7.838;2024-01-10T05:04:48;23.43;;;13.40;;
14191;SDS011;7177;48.572;7.838;2024-01-10T05:07:14;22.65;;;13.18;;
14191;SDS011;7177;48.572;7.838;2024-01-10T05:09:40;17.67;;;11.50;;
14191;SDS011;7177;48.572;7.838;2024-01-10T05:12:05;23.50;;;14.43;;
14191;SDS011;7177;48.572;7.838;2024-01-10T05:14:31;23.07;;;13.63;;
14191;SDS011;7177;48.572;7.838;2024-01-10T05:16:56;22.90;;;13.70;;
14191;SDS011;7177;48.572;7.838;2024-01-10T05:19:22;20.90;;;13.53;;
14191;SDS011;7177;48.572;7.838;2024-01-10T05:21:47;18.17;;;12.27;;
14191;SDS011;7177;48.572;7.838;2024-01-10T05:24:13;20.67;;;13.50;;
14191;SDS011;7177;48.572;7.838;2024-01-10T05:26:39;20.00;;;13.50;;
14191;SDS011;7177;48.572;7.838;2024-01-10T05:29:04;22.93;;;12.97;;
14191;SDS011;7177;48.572;7.838;2024-01-10T05:31:30;20.70;;;13.83;;
14191;SDS011;7177;48.572;7.838;2024-01-10T05:33:55;21.50;;;13.63;;
14191;SDS011;7177;48.572;7.838;2024-01-10T05:36:21;19.57;;;13.73;;
14191;SDS011;7177;48.572;7.838;2024-01-10T05:38:47;22.80;;;13.48;;
14191;SDS011;7177;48.572;7.838;2024-01-10T05:41:13;20.43;;;13.17;;
14191;SDS011;7177;48.572;7.838;2024-01-10T05:43:39;24.83;;;14.60;;
14191;SDS011;7177;48.572;7.838;2024-01-10T05:46:05;23.88;;;13.55;;
14191;SDS011;7177;48.572;7.838;2024-01-10T05:48:30;18.87;;;12.10;;
14191;SDS011;7177;48.572;7.838;2024-01-10T05:50:57;19.08;;;12.85;;
14191;SDS011;7177;48.572;7.838;2024-01-10T05:53:23;28.10;;;20.43;;
14191;SDS011;7177;48.572;7.838;2024-01-10T05:55:49;31.13;;;21.48;;
14191;SDS011;7177;48.572;7.838;2024-01-10T05:58:16;26.75;;;19.77;;
14191;SDS011;7177;48.572;7.838;2024-01-10T06:00:41;25.30;;;18.63;;
14191;SDS011;7177;48.572;7.838;2024-01-10T06:03:07;23.50;;;16.23;;
14191;SDS011;7177;48.572;7.838;2024-01-10T06:05:32;25.00;;;15.20;;
14191;SDS011;7177;48.572;7.838;2024-01-10T06:07:58;22.23;;;13.40;;
14191;SDS011;7177;48.572;7.838;2024-01-10T06:10:23;23.17;;;14.00;;
14191;SDS011;7177;48.572;7.838;2024-01-10T06:12:49;22.33;;;14.00;;
14191;SDS011;7177;48.572;7.838;2024-01-10T06:15:15;21.23;;;13.33;;
14191;SDS011;7177;48.572;7.838;2024-01-10T06:17:41;23.47;;;14.60;;
14191;SDS011;7177;48.572;7.838;2024-01-10T06:20:06;23.07;;;13.97;;
14191;SDS011;7177;48.572;7.838;2024-01-10T06:22:32;20.33;;;13.30;;
14191;SDS011;7177;48.572;7.838;2024-01-10T06:24:58;22.27;;;13.77;;
14191;SDS011;7177;48.572;7.838;2024-01-10T06:27:24;20.07;;;13.30;;
14191;SDS011;7177;48.572;7.838;2024-01-10T06:29:49;21.60;;;13.70;;
14191;SDS011;7177;48.572;7.838;2024-01-10T06:32:15;19.77;;;12.53;;
14191;SDS011;7177;48.572;7.838;2024-01-10T06:34:40;21.07;;;13.60;;
14191;SDS011;7177;48.572;7.838;2024-01-10T06:37:06;24.53;;;14.70;;
14191;SDS011;7177;48.572;7.838;2024-01-10T06:39:35;21.63;;;13.55;;
14191;SDS011;7177;48.572;7.838;2024-01-10T06:42:00;22.27;;;13.37;;
14191;SDS011;7177;48.572;7.838;2024-01-10T06:44:28;23.05;;;12.77;;
14191;SDS011;7177;48.572;7.838;2024-01-10T06:46:54;18.83;;;12.50;;
14191;SDS011;7177;48.572;7.838;2024-01-10T06:49:20;22.87;;;13.47;;
14191;SDS011;7177;48.572;7.838;2024-01-10T06:51:45;20.70;;;13.13;;
14191;SDS011;7177;48.572;7.838;2024-01-10T06:54:11;23.83;;;13.43;;
14191;SDS011;7177;48.572;7.838;2024-01-10T06:56:38;23.00;;;13.80;;
14191;SDS011;7177;48.572;7.838;2024-01-10T06:59:04;21.67;;;14.20;;
14191;SDS011;7177;48.572;7.838;2024-01-10T07:01:29;22.37;;;13.83;;
14191;SDS011;7177;48.572;7.838;2024-01-10T07:03:55;27.47;;;15.50;;
14191;SDS011;7177;48.572;7.838;2024-01-10T07:06:21;20.97;;;13.13;;
14191;SDS011;7177;48.572;7.838;2024-01-10T07:08:47;21.65;;;13.57;;
14191;SDS011;7177;48.572;7.838;2024-01-10T07:11:14;21.05;;;13.15;;
14191;SDS011;7177;48.572;7.838;2024-01-10T07:13:44;21.40;;;13.15;;
14191;SDS011;7177;48.572;7.838;2024-01-10T07:16:10;21.37;;;13.63;;
14191;SDS011;7177;48.572;7.838;2024-01-10T07:18:35;22.80;;;14.10;;
14191;SDS011;7177;48.572;7.838;2024-01-10T07:21:01;22.90;;;13.97;;
14191;SDS011;7177;48.572;7.838;2024-01-10T07:23:27;25.10;;;14.83;;
14191;SDS011;7177;48.572;7.838;2024-01-10T07:25:52;21.57;;;14.27;;
14191;SDS011;7177;48.572;7.838;2024-01-10T07:28:18;29.33;;;16.27;;
14191;SDS011;7177;48.572;7.838;2024-01-10T07:30:44;22.05;;;14.23;;
14191;SDS011;7177;48.572;7.838;2024-01-10T07:33:10;22.87;;;14.37;;
14191;SDS011;7177;48.572;7.838;2024-01-10T07:35:36;23.40;;;14.67;;
14191;SDS011;7177;48.572;7.838;2024-01-10T07:38:03;24.10;;;15.40;;
14191;SDS011;7177;48.572;7.838;2024-01-10T07:40:29;22.08;;;14.57;;
14191;SDS011;7177;48.572;7.838;2024-01-10T07:43:02;27.75;;;16.98;;
14191;SDS011;7177;48.572;7.838;2024-01-10T07:45:28;30.25;;;18.80;;
14191;SDS011;7177;48.572;7.838;2024-01-10T07:47:54;28.50;;;16.97;;
14191;SDS011;7177;48.572;7.838;2024-01-10T07:50:19;26.80;;;17.15;;
14191;SDS011;7177;48.572;7.838;2024-01-10T07:52:45;25.77;;;16.07;;
14191;SDS011;7177;48.572;7.838;2024-01-10T07:55:14;27.02;;;15.40;;
14191;SDS011;7177;48.572;7.838;2024-01-10T07:57:40;25.55;;;15.75;;
14191;SDS011;7177;48.572;7.838;2024-01-10T08:00:07;30.55;;;17.40;;
14191;SDS011;7177;48.572;7.838;2024-01-10T08:02:37;23.05;;;15.90;;
14191;SDS011;7177;48.572;7.838;2024-01-10T08:05:04;31.30;;;17.98;;
14191;SDS011;7177;48.572;7.838;2024-01-10T08:07:35;32.42;;;20.63;;
14191;SDS011;7177;48.572;7.838;2024-01-10T08:10:04;31.67;;;20.38;;
14191;SDS011;7177;48.572;7.838;2024-01-10T08:12:36;26.02;;;16.95;;
14191;SDS011;7177;48.572;7.838;2024-01-10T08:15:03;28.05;;;16.75;;
14191;SDS011;7177;48.572;7.838;2024-01-10T08:17:28;26.03;;;17.13;;
14191;SDS011;7177;48.572;7.838;2024-01-10T08:19:54;26.27;;;17.37;;
14191;SDS011;7177;48.572;7.838;2024-01-10T08:22:20;25.27;;;16.60;;
14191;SDS011;7177;48.572;7.838;2024-01-10T08:24:45;31.77;;;15.93;;
14191;SDS011;7177;48.572;7.838;2024-01-10T08:27:11;26.77;;;15.97;;
14191;SDS011;7177;48.572;7.838;2024-01-10T08:29:37;23.53;;;15.10;;
14191;SDS011;7177;48.572;7.838;2024-01-10T08:32:03;25.10;;;15.97;;
14191;SDS011;7177;48.572;7.838;2024-01-10T08:34:29;27.53;;;16.37;;
14191;SDS011;7177;48.572;7.838;2024-01-10T08:36:55;24.52;;;15.60;;
14191;SDS011;7177;48.572;7.838;2024-01-10T08:39:20;26.50;;;17.67;;
14191;SDS011;7177;48.572;7.838;2024-01-10T08:41:47;22.58;;;15.15;;
14191;SDS011;7177;48.572;7.838;2024-01-10T08:44:13;26.20;;;15.90;;
14191;SDS011;7177;48.572;7.838;2024-01-10T08:46:38;26.70;;;17.03;;
14191;SDS011;7177;48.572;7.838;2024-01-10T08:49:04;28.00;;;16.90;;
14191;SDS011;7177;48.572;7.838;2024-01-10T08:51:29;28.17;;;16.10;;
14191;SDS011;7177;48.572;7.838;2024-01-10T08:53:55;27.60;;;16.83;;
14191;SDS011;7177;48.572;7.838;2024-01-10T08:56:22;25.35;;;15.90;;
14191;SDS011;7177;48.572;7.838;2024-01-10T08:58:49;26.25;;;17.13;;
14191;SDS011;7177;48.572;7.838;2024-01-10T09:01:14;29.03;;;17.27;;
14191;SDS011;7177;48.572;7.838;2024-01-10T09:03:40;29.50;;;16.43;;
14191;SDS011;7177;48.572;7.838;2024-01-10T09:06:05;29.90;;;17.33;;
14191;SDS011;7177;48.572;7.838;2024-01-10T09:08:32;25.77;;;15.65;;
14191;SDS011;7177;48.572;7.838;2024-01-10T09:10:58;26.63;;;16.23;;
14191;SDS011;7177;48.572;7.838;2024-01-10T09:13:24;29.23;;;16.67;;
14191;SDS011;7177;48.572;7.838;2024-01-10T09:15:50;26.47;;;16.37;;
14191;SDS011;7177;48.572;7.838;2024-01-10T09:18:15;26.37;;;16.40;;
14191;SDS011;7177;48.572;7.838;2024-01-10T09:20:41;25.63;;;16.23;;
14191;SDS011;7177;48.572;7.838;2024-01-10T09:23:07;39.43;;;23.67;;
14191;SDS011;7177;48.572;7.838;2024-01-10T09:25:32;30.57;;;18.83;;
14191;SDS011;7177;48.572;7.838;2024-01-10T09:27:57;26.43;;;17.40;;
14191;SDS011;7177;48.572;7.838;2024-01-10T09:30:23;29.03;;;17.90;;
14191;SDS011;7177;48.572;7.838;2024-01-10T09:32:49;33.40;;;17.93;;
14191;SDS011;7177;48.572;7.838;2024-01-10T09:35:15;26.47;;;17.37;;
14191;SDS011;7177;48.572;7.838;2024-01-10T09:37:40;29.33;;;18.43;;
14191;SDS011;7177;48.572;7.838;2024-01-10T09:40:06;24.47;;;17.27;;
14191;SDS011;7177;48.572;7.838;2024-01-10T09:42:33;30.52;;;19.40;;
14191;SDS011;7177;48.572;7.838;2024-01-10T09:45:00;30.60;;;18.63;;
14191;SDS011;7177;48.572;7.838;2024-01-10T09:47:27;28.25;;;17.88;;
14191;SDS011;7177;48.572;7.838;2024-01-10T09:49:53;26.97;;;18.03;;
14191;SDS011;7177;48.572;7.838;2024-01-10T09:52:23;26.77;;;17.40;;
14191;SDS011;7177;48.572;7.838;2024-01-10T09:54:52;24.08;;;16.33;;
14191;SDS011;7177;48.572;7.838;2024-01-10T09:57:20;27.40;;;17.02;;
14191;SDS011;7177;48.572;7.838;2024-01-10T09:59:48;24.45;;;17.27;;
14191;SDS011;7177;48.572;7.838;2024-01-10T10:02:16;27.65;;;17.15;;
14191;SDS011;7177;48.572;7.838;2024-01-10T10:04:49;27.20;;;17.02;;
14191;SDS011;7177;48.572;7.838;2024-01-10T10:07:29;29.20;;;18.92;;
14191;SDS011;7177;48.572;7.838;2024-01-10T10:09:54;27.33;;;18.23;;
14191;SDS011;7177;48.572;7.838;2024-01-10T10:12:24;32.03;;;17.63;;
14191;SDS011;7177;48.572;7.838;2024-01-10T10:15:11;26.38;;;17.13;;
14191;SDS011;7177;48.572;7.838;2024-01-10T10:17:38;26.88;;;16.73;;
14191;SDS011;7177;48.572;7.838;2024-01-10T10:20:11;25.88;;;16.83;;
14191;SDS011;7177;48.572;7.838;2024-01-10T10:22:38;26.87;;;17.20;;
14191;SDS011;7177;48.572;7.838;2024-01-10T10:25:04;29.13;;;18.93;;
14191;SDS011;7177;48.572;7.838;2024-01-10T10:27:30;28.87;;;17.77;;
14191;SDS011;7177;48.572;7.838;2024-01-10T10:29:55;31.80;;;18.50;;
14191;SDS011;7177;48.572;7.838;2024-01-10T10:32:21;28.07;;;18.30;;
14191;SDS011;7177;48.572;7.838;2024-01-10T10:34:47;28.03;;;17.77;;
14191;SDS011;7177;48.572;7.838;2024-01-10T10:37:12;28.80;;;18.33;;
14191;SDS011;7177;48.572;7.838;2024-01-10T10:39:38;27.20;;;16.20;;
14191;SDS011;7177;48.572;7.838;2024-01-10T10:42:03;28.33;;;18.03;;
14191;SDS011;7177;48.572;7.838;2024-01-10T10:44:29;25.90;;;16.70;;
14191;SDS011;7177;48.572;7.838;2024-01-10T10:47:02;24.60;;;16.77;;
14191;SDS011;7177;48.572;7.838;2024-01-10T10:49:31;27.83;;;17.53;;
14191;SDS011;7177;48.572;7.838;2024-01-10T10:51:58;26.57;;;16.77;;
14191;SDS011;7177;48.572;7.838;2024-01-10T10:54:26;27.93;;;17.03;;
14191;SDS011;7177;48.572;7.838;2024-01-10T10:56:55;27.43;;;18.33;;
14191;SDS011;7177;48.572;7.838;2024-01-10T10:59:24;26.23;;;16.50;;
14191;SDS011;7177;48.572;7.838;2024-01-10T11:01:51;28.33;;;17.43;;
14191;SDS011;7177;48.572;7.838;2024-01-10T11:04:18;29.97;;;19.10;;
14191;SDS011;7177;48.572;7.838;2024-01-10T11:06:46;30.83;;;17.53;;
14191;SDS011;7177;48.572;7.838;2024-01-10T11:09:11;29.70;;;17.37;;
14191;SDS011;7177;48.572;7.838;2024-01-10T11:16:56;29.33;;;17.67;;
14191;SDS011;7177;48.572;7.838;2024-01-10T11:25:34;28.63;;;17.77;;
14191;SDS011;7177;48.572;7.838;2024-01-10T11:28:02;31.77;;;18.27;;
14191;SDS011;7177;48.572;7.838;2024-01-10T11:30:35;26.43;;;16.30;;
14191;SDS011;7177;48.572;7.838;2024-01-10T11:33:24;27.83;;;16.83;;
14191;SDS011;7177;48.572;7.838;2024-01-10T11:36:06;27.77;;;17.77;;
14191;SDS011;7177;48.572;7.838;2024-01-10T11:38:32;29.63;;;17.40;;
14191;SDS011;7177;48.572;7.838;2024-01-10T11:40:57;28.40;;;17.93;;
14191;SDS011;7177;48.572;7.838;2024-01-10T11:43:23;32.10;;;18.27;;
14191;SDS011;7177;48.572;7.838;2024-01-10T11:45:52;26.67;;;16.80;;
14191;SDS011;7177;48.572;7.838;2024-01-10T11:48:26;27.03;;;16.70;;
14191;SDS011;7177;48.572;7.838;2024-01-10T11:50:52;28.17;;;18.73;;
14191;SDS011;7177;48.572;7.838;2024-01-10T11:56:15;29.37;;;18.37;;
14191;SDS011;7177;48.572;7.838;2024-01-10T12:01:28;27.90;;;16.40;;
14191;SDS011;7177;48.572;7.838;2024-01-10T12:03:54;28.40;;;18.23;;
14191;SDS011;7177;48.572;7.838;2024-01-10T12:06:21;26.80;;;17.23;;
14191;SDS011;7177;48.572;7.838;2024-01-10T12:08:47;30.17;;;18.60;;
14191;SDS011;7177;48.572;7.838;2024-01-10T12:11:14;27.67;;;18.10;;
14191;SDS011;7177;48.572;7.838;2024-01-10T12:13:41;27.00;;;17.20;;
14191;SDS011;7177;48.572;7.838;2024-01-10T12:16:06;23.97;;;17.27;;
14191;SDS011;7177;48.572;7.838;2024-01-10T12:18:32;30.40;;;19.43;;
14191;SDS011;7177;48.572;7.838;2024-01-10T12:20:58;27.50;;;17.23;;
14191;SDS011;7177;48.572;7.838;2024-01-10T12:23:24;32.53;;;19.77;;
14191;SDS011;7177;48.572;7.838;2024-01-10T12:25:55;33.03;;;19.57;;
14191;SDS011;7177;48.572;7.838;2024-01-10T12:28:21;33.27;;;19.70;;
14191;SDS011;7177;48.572;7.838;2024-01-10T12:30:47;31.10;;;19.10;;
14191;SDS011;7177;48.572;7.838;2024-01-10T12:33:13;32.23;;;20.33;;
14191;SDS011;7177;48.572;7.838;2024-01-10T12:35:38;25.97;;;18.07;;
14191;SDS011;7177;48.572;7.838;2024-01-10T12:38:07;29.13;;;18.87;;
14191;SDS011;7177;48.572;7.838;2024-01-10T12:40:35;29.67;;;18.13;;
14191;SDS011;7177;48.572;7.838;2024-01-10T12:43:04;26.93;;;17.57;;
14191;SDS011;7177;48.572;7.838;2024-01-10T12:45:30;30.27;;;18.17;;
14191;SDS011;7177;48.572;7.838;2024-01-10T12:47:59;26.57;;;16.20;;
14191;SDS011;7177;48.572;7.838;2024-01-10T12:50:24;25.87;;;17.07;;
14191;SDS011;7177;48.572;7.838;2024-01-10T12:52:50;30.20;;;18.63;;
14191;SDS011;7177;48.572;7.838;2024-01-10T12:55:16;28.83;;;17.87;;
14191;SDS011;7177;48.572;7.838;2024-01-10T12:57:42;29.23;;;18.33;;
14191;SDS011;7177;48.572;7.838;2024-01-10T13:00:08;31.17;;;17.97;;
14191;SDS011;7177;48.572;7.838;2024-01-10T13:02:36;28.70;;;18.57;;
14191;SDS011;7177;48.572;7.838;2024-01-10T13:05:05;29.70;;;18.27;;
14191;SDS011;7177;48.572;7.838;2024-01-10T13:07:37;28.17;;;18.33;;
14191;SDS011;7177;48.572;7.838;2024-01-10T13:10:03;25.90;;;16.83;;
14191;SDS011;7177;48.572;7.838;2024-01-10T13:12:29;28.57;;;17.83;;
14191;SDS011;7177;48.572;7.838;2024-01-10T13:14:55;26.93;;;17.23;;
14191;SDS011;7177;48.572;7.838;2024-01-10T13:17:21;30.77;;;17.27;;
14191;SDS011;7177;48.572;7.838;2024-01-10T13:19:47;32.13;;;17.73;;
14191;SDS011;7177;48.572;7.838;2024-01-10T13:22:14;26.07;;;16.80;;
14191;SDS011;7177;48.572;7.838;2024-01-10T13:24:45;32.23;;;17.60;;
14191;SDS011;7177;48.572;7.838;2024-01-10T13:27:11;25.23;;;17.13;;
14191;SDS011;7177;48.572;7.838;2024-01-10T13:29:37;26.13;;;17.57;;
14191;SDS011;7177;48.572;7.838;2024-01-10T13:32:04;29.30;;;18.67;;
14191;SDS011;7177;48.572;7.838;2024-01-10T13:34:30;30.53;;;17.53;;
14191;SDS011;7177;48.572;7.838;2024-01-10T13:36:57;31.33;;;19.37;;
14191;SDS011;7177;48.572;7.838;2024-01-10T13:39:23;28.87;;;18.47;;
14191;SDS011;7177;48.572;7.838;2024-01-10T13:41:48;29.73;;;18.53;;
14191;SDS011;7177;48.572;7.838;2024-01-10T13:44:14;27.13;;;18.37;;
14191;SDS011;7177;48.572;7.838;2024-01-10T13:46:39;27.10;;;17.97;;
14191;SDS011;7177;48.572;7.838;2024-01-10T13:49:06;29.97;;;18.67;;
14191;SDS011;7177;48.572;7.838;2024-01-10T13:51:31;30.70;;;18.37;;
14191;SDS011;7177;48.572;7.838;2024-01-10T13:53:57;26.00;;;16.90;;
14191;SDS011;7177;48.572;7.838;2024-01-10T13:56:22;28.20;;;17.40;;
14191;SDS011;7177;48.572;7.838;2024-01-10T13:58:48;41.37;;;25.47;;
14191;SDS011;7177;48.572;7.838;2024-01-10T14:01:14;42.27;;;25.63;;
14191;SDS011;7177;48.572;7.838;2024-01-10T14:03:40;71.97;;;39.20;;
14191;SDS011;7177;48.572;7.838;2024-01-10T14:06:05;45.17;;;27.73;;
14191;SDS011;7177;48.572;7.838;2024-01-10T14:08:31;37.30;;;22.03;;
14191;SDS011;7177;48.572;7.838;2024-01-10T14:10:57;30.60;;;18.93;;
14191;SDS011;7177;48.572;7.838;2024-01-10T14:13:23;33.93;;;20.43;;
14191;SDS011;7177;48.572;7.838;2024-01-10T14:15:48;29.17;;;19.50;;
14191;SDS011;7177;48.572;7.838;2024-01-10T14:18:14;30.27;;;18.50;;
14191;SDS011;7177;48.572;7.838;2024-01-10T14:20:39;30.70;;;18.50;;
14191;SDS011;7177;48.572;7.838;2024-01-10T14:23:05;30.90;;;20.13;;
14191;SDS011;7177;48.572;7.838;2024-01-10T14:25:31;31.70;;;20.43;;
14191;SDS011;7177;48.572;7.838;2024-01-10T14:27:56;28.17;;;18.67;;
14191;SDS011;7177;48.572;7.838;2024-01-10T14:30:24;34.63;;;19.60;;
14191;SDS011;7177;48.572;7.838;2024-01-10T14:32:50;34.70;;;21.93;;
14191;SDS011;7177;48.572;7.838;2024-01-10T14:35:15;31.37;;;20.63;;
14191;SDS011;7177;48.572;7.838;2024-01-10T14:37:41;30.10;;;19.53;;
14191;SDS011;7177;48.572;7.838;2024-01-10T14:40:07;30.33;;;19.03;;
14191;SDS011;7177;48.572;7.838;2024-01-10T14:42:33;34.23;;;21.10;;
14191;SDS011;7177;48.572;7.838;2024-01-10T14:44:59;35.00;;;22.43;;
14191;SDS011;7177;48.572;7.838;2024-01-10T14:47:25;30.20;;;20.73;;